Latest Weather Observations for Warruwi

IDD60801

Issued at 8:01 am CST Tuesday 23 December 2014 (issued every 30 minutes, with the page automatically refreshed every 10 minutes)

About weather observations | Map of weather stations | Latest weather observations for NT | Other Formats
Station Details ID: 014401 Name: WARRUWI AIRPORT Lat: -11.65 Lon: 133.38 Height: 19.2 m
Data from the previous 72 hours. | See also: Recent months at Warruwi
Date/Time
CST
Temp
°C
App
Temp
°C
Dew
Point
Rel
Hum
%
Delta-T
°C
Wind Press
QNH
hPa
Press
MSL
hPa
Rain
since 9 am
mm
Dir
 
Spd
km/h
Gust
km/h
Spd
kts
Gust
kts
23/08:00am 28.9 34.5 24.9 79 2.8 SSW 4 4 2 2 1009.9 1009.7 0.2
23/07:30am 28.6 34.4 24.6 79 2.8 SSW 2 4 1 2 1009.7 1009.5 0.2
23/07:00am 28.4 33.6 24.2 78 2.9 SW 4 6 2 3 1009.7 1009.5 0.2
23/06:30am 28.3 33.4 24.1 78 2.9 SW 4 6 2 3 1009.2 1009.0 0.2
23/06:00am 28.2 33.5 24.4 80 2.6 SW 4 6 2 3 1008.7 1008.5 0.2
23/05:30am 27.8 33.9 24.4 82 2.4 CALM 0 4 0 2 1008.2 1008.0 0.2
23/05:00am 28.0 33.2 23.6 77 3.0 NNW 2 4 1 2 1008.3 1008.1 0.2
23/04:30am 28.0 34.5 25.0 84 2.1 CALM 0 0 0 0 1008.4 1008.2 0.2
23/04:00am 27.9 34.5 25.3 86 1.8 CALM 0 0 0 0 1008.2 1008.0 0.2
23/03:30am 27.8 34.5 25.4 87 1.7 CALM 0 0 0 0 1008.0 1007.8 0.2
23/03:00am 27.7 34.1 24.9 85 2.0 CALM 0 0 0 0 1007.8 1007.6 0.2
23/02:30am 27.6 34.1 25.0 86 1.8 CALM 0 0 0 0 1007.8 1007.6 0.2
23/02:00am 27.9 34.5 25.3 86 1.8 CALM 0 0 0 0 1007.8 1007.6 0.2
23/01:30am 27.8 34.0 24.6 83 2.2 CALM 0 0 0 0 1007.9 1007.7 0.2
23/01:00am 27.8 33.6 24.6 83 2.2 NNE 2 2 1 1 1007.9 1007.7 0.2
23/12:30am 28.1 34.5 24.9 83 2.2 CALM 0 0 0 0 1008.2 1008.0 0.2
23/12:00am 28.2 34.5 24.8 82 2.4 CALM 0 0 0 0 1008.3 1008.1 0.2
 
Date/Time
CST
Temp
°C
App
Temp
°C
Dew
Point
Rel
Hum
%
Delta-T
°C
Wind Press
QNH
hPa
Press
MSL
hPa
Rain
since 9 am
mm
Dir
 
Spd
km/h
Gust
km/h
Spd
kts
Gust
kts
22/11:30pm 28.3 34.4 24.5 80 2.6 CALM 0 0 0 0 1008.6 1008.4 0.2
22/11:00pm 28.4 34.2 24.0 77 3.0 CALM 0 0 0 0 1008.6 1008.4 0.2
22/10:30pm 28.6 34.6 24.2 77 3.1 CALM 0 0 0 0 1008.4 1008.2 0.2
22/10:00pm 28.7 34.1 23.8 75 3.4 N 2 4 1 2 1008.0 1007.8 0.2
22/09:30pm 28.8 33.9 24.1 76 3.3 NNE 4 6 2 3 1007.8 1007.6 0.2
22/09:00pm 29.0 34.4 23.9 74 3.5 NNE 2 2 1 1 1007.7 1007.5 0.2
22/08:30pm 29.4 34.9 23.4 70 4.1 CALM 0 0 0 0 1007.4 1007.2 0.2
22/08:00pm 29.8 35.1 23.7 70 4.2 NNE 2 7 1 4 1006.9 1006.7 0.2
22/07:30pm 29.9 34.4 22.9 66 4.8 N 4 11 2 6 1006.6 1006.4 0.2
22/07:00pm 30.4 34.7 22.6 63 5.3 N 4 9 2 5 1006.4 1006.2 0.2
22/06:30pm 31.3 35.3 23.1 61 5.7 NNE 7 13 4 7 1006.1 1005.9 0.2
22/06:00pm 31.9 35.8 22.9 59 6.2 N 7 13 4 7 1006.1 1005.9 0.2
22/05:30pm 32.0 35.2 23.0 59 6.2 NNE 11 19 6 10 1006.3 1006.1 0.2
22/05:00pm 32.3 35.7 22.7 57 6.6 NNE 9 17 5 9 1006.1 1005.9 0.2
22/04:30pm 32.9 36.7 23.5 57 6.5 NE 9 15 5 8 1006.5 1006.3 0.2
22/04:00pm 32.8 35.6 21.6 51 7.6 NE 9 17 5 9 1006.6 1006.4 0.2
22/03:30pm 33.0 35.8 21.5 50 7.8 ENE 9 15 5 8 1006.7 1006.5 0.2
22/03:00pm 33.0 35.9 21.8 51 7.6 ENE 9 15 5 8 1007.0 1006.8 0.2
22/02:30pm 33.4 36.2 23.7 56 6.8 ESE 15 26 8 14 1007.4 1007.2 0.2
22/02:00pm 32.5 36.1 23.7 59 6.1 ENE 11 19 6 10 1007.5 1007.3 0.2
22/01:30pm 33.0 36.5 25.5 64 5.3 E 17 22 9 12 1007.9 1007.7 0.2
22/01:00pm 32.1 35.2 24.2 63 5.5 ESE 15 24 8 13 1008.4 1008.2 0.2
22/12:30pm 31.9 36.0 24.5 65 5.2 ESE 11 17 6 9 1008.7 1008.5 0.2
22/12:00pm 31.8 36.8 25.4 69 4.5 E 9 15 5 8 1009.0 1008.8 0.2
22/11:30am 31.6 36.3 25.0 68 4.7 ESE 9 13 5 7 1009.2 1009.0 0.2
22/11:00am 31.5 36.6 25.6 71 4.2 ESE 9 13 5 7 1009.3 1009.1 0.2
22/10:30am 30.9 36.0 25.0 71 4.2 ESE 7 13 4 7 1009.6 1009.4 0.2
22/10:00am 30.9 35.7 24.5 68 4.5 E 7 11 4 6 1009.7 1009.5 0.2
22/09:30am 30.3 35.2 24.4 70 4.1 E 6 6 3 3 1010.1 1009.9 0.0
22/09:00am 27.7 33.5 26.1 91 1.1 SSE 7 9 4 5 1010.2 1010.0 21.2
22/08:30am 26.3 31.0 24.3 89 1.4 SSW 7 9 4 5 1010.2 1010.0 19.4
22/08:00am 26.7 30.6 24.2 86 1.7 NNE 11 28 6 15 1010.1 1009.9 6.8
22/07:30am 29.8 35.3 24.7 74 3.6 SSE 4 6 2 3 1009.5 1009.3 0.0
22/07:00am 28.6 34.9 24.8 80 2.7 CALM 0 0 0 0 1009.1 1008.9 0.0
22/06:30am 28.0 34.1 24.4 81 2.5 CALM 0 0 0 0 1008.8 1008.6 0.0
22/06:00am 27.7 33.6 24.1 81 2.5 CALM 0 0 0 0 1008.3 1008.1 0.0
22/05:30am 27.7 33.6 24.1 81 2.5 CALM 0 0 0 0 1008.2 1008.0 0.0
22/05:00am 28.0 34.0 24.2 80 2.6 CALM 0 0 0 0 1008.0 1007.8 0.0
22/04:30am 27.9 33.6 23.7 78 2.9 CALM 0 0 0 0 1007.8 1007.6 0.0
22/04:00am 28.2 33.9 23.8 77 3.0 CALM 0 0 0 0 1007.7 1007.5 0.0
22/03:30am 28.2 33.9 23.8 77 3.0 CALM 0 0 0 0 1007.8 1007.6 0.0
22/03:00am 28.2 34.0 24.0 78 2.9 CALM 0 0 0 0 1007.7 1007.5 0.0
22/02:30am 28.3 34.2 24.1 78 2.9 CALM 0 0 0 0 1008.0 1007.8 0.0
22/02:00am 28.4 34.1 23.8 76 3.2 CALM 0 0 0 0 1008.1 1007.9 0.0
22/01:30am 28.4 34.1 23.8 76 3.2 CALM 0 0 0 0 1008.2 1008.0 0.0
22/01:00am 28.5 34.3 23.9 76 3.2 CALM 0 0 0 0 1008.3 1008.1 0.0
22/12:30am 28.4 34.1 23.8 76 3.2 CALM 0 0 0 0 1008.3 1008.1 0.0
22/12:00am 28.6 34.3 23.7 75 3.4 CALM 0 0 0 0 1008.5 1008.3 0.0
 
Date/Time
CST
Temp
°C
App
Temp
°C
Dew
Point
Rel
Hum
%
Delta-T
°C
Wind Press
QNH
hPa
Press
MSL
hPa
Rain
since 9 am
mm
Dir
 
Spd
km/h
Gust
km/h
Spd
kts
Gust
kts
21/11:30pm 28.8 34.1 23.7 74 3.5 NNE 2 2 1 1 1008.7 1008.5 0.0
21/11:00pm 28.7 33.9 23.6 74 3.5 NNE 2 4 1 2 1008.3 1008.1 0.0
21/10:30pm 29.1 34.3 23.5 72 3.9 NNE 2 4 1 2 1008.2 1008.0 0.0
21/10:00pm 29.4 34.3 23.6 71 4.0 NNE 4 4 2 2 1007.9 1007.7 0.0
21/09:30pm 29.5 35.0 23.4 69 4.2 CALM 0 0 0 0 1007.9 1007.7 0.0
21/09:00pm 29.9 35.3 23.3 67 4.5 CALM 0 0 0 0 1007.4 1007.2 0.0
21/08:30pm 30.0 34.7 23.4 67 4.6 N 4 7 2 4 1006.9 1006.7 0.0
21/08:00pm 30.3 35.1 23.5 67 4.7 NNE 4 7 2 4 1006.6 1006.4 0.0
21/07:30pm 30.5 34.9 23.4 66 4.9 N 6 11 3 6 1006.1 1005.9 0.0
21/07:00pm 30.9 34.8 23.0 62 5.4 NNE 7 13 4 7 1005.8 1005.6 0.0
21/06:30pm 31.2 34.7 22.8 61 5.8 NNE 9 17 5 9 1005.6 1005.4 0.0
21/06:00pm 32.0 35.7 23.3 60 6.0 N 9 15 5 8 1005.4 1005.2 0.0
21/05:30pm 32.5 36.4 22.9 57 6.6 N 7 15 4 8 1005.3 1005.1 0.0
21/05:00pm 33.4 36.7 22.5 52 7.5 N 9 19 5 10 1005.3 1005.1 0.0
21/04:30pm 33.5 36.1 22.0 51 7.9 NNE 11 15 6 8 1005.4 1005.2 0.0
21/04:00pm 33.3 36.7 23.3 55 6.9 NNW 11 22 6 12 1005.5 1005.3 0.0
21/03:30pm 33.7 37.3 23.7 56 7.0 N 11 20 6 11 1005.8 1005.6 0.0
21/03:00pm 33.6 37.5 23.6 56 7.0 NNW 9 19 5 10 1006.3 1006.1 0.0
21/02:30pm 33.5 37.0 23.5 55 7.0 N 11 20 6 11 1006.7 1006.5 0.0
21/02:00pm 34.1 37.8 23.2 53 7.6 N 9 17 5 9 1007.2 1007.0 0.0
21/01:30pm 34.2 38.5 23.6 54 7.4 NNE 7 17 4 9 1007.7 1007.5 0.0
21/01:00pm 33.4 37.8 23.4 55 6.9 NE 6 13 3 7 1008.3 1008.1 0.0
21/12:30pm 32.9 36.6 23.2 56 6.7 N 9 17 5 9 1008.7 1008.5 0.0
21/12:00pm 34.3 38.8 23.9 54 7.3 NW 7 15 4 8 1009.2 1009.0 0.0
21/11:30am 32.8 36.6 23.4 57 6.5 WNW 9 17 5 9 1009.6 1009.4 0.0
21/11:00am 33.2 36.8 23.8 57 6.6 W 11 17 6 9 1010.0 1009.8 0.0
21/10:30am 32.9 36.4 23.5 57 6.5 WNW 11 17 6 9 1010.7 1010.5 0.0
21/10:00am 31.9 35.8 22.9 59 6.2 WNW 7 13 4 7 1010.7 1010.5 0.0
21/09:30am 31.8 35.9 23.3 60 5.9 WNW 7 13 4 7 1010.8 1010.6 0.0
21/09:00am 31.8 36.6 24.4 65 5.2 W 7 11 4 6 1010.7 1010.5 0.0
21/08:30am 31.0 35.6 24.1 66 4.8 WNW 7 11 4 6 1010.1 1009.9 0.0
21/08:00am 31.7 35.7 23.8 63 5.5 W 9 13 5 7 1009.8 1009.6 0.0
21/07:30am 30.7 35.4 23.4 65 5.0 NW 4 6 2 3 1009.6 1009.4 0.0
21/07:00am 29.6 35.4 24.0 72 3.9 CALM 0 0 0 0 1009.3 1009.1 0.0
21/06:30am 28.6 34.3 23.7 75 3.4 CALM 0 0 0 0 1008.6 1008.4 0.0
21/06:00am 29.0 34.3 23.7 73 3.7 N 2 2 1 1 1008.3 1008.1 0.0
21/05:30am 29.2 34.4 23.6 72 3.9 N 2 4 1 2 1008.0 1007.8 0.0
21/05:00am 29.3 34.4 24.0 73 3.7 N 4 6 2 3 1007.8 1007.6 0.0
21/04:30am 29.5 34.9 23.9 72 3.9 NNW 2 6 1 3 1007.8 1007.6 0.0
21/04:00am 29.6 34.6 23.8 71 4.0 NNW 4 6 2 3 1007.5 1007.3 0.0
21/03:30am 29.8 34.7 23.7 70 4.2 NNW 4 9 2 5 1007.2 1007.0 0.0
21/03:00am 29.9 35.0 24.1 71 4.0 N 4 7 2 4 1007.8 1007.6 0.0
21/02:30am 29.8 35.1 24.4 73 3.8 NNW 4 7 2 4 1008.1 1007.9 0.0
21/02:00am 30.0 34.9 24.4 72 3.9 NNW 6 9 3 5 1008.1 1007.9 0.0
21/01:30am 29.9 35.3 24.5 73 3.8 NW 4 7 2 4 1008.4 1008.2 0.0
21/01:00am 30.0 35.1 24.6 73 3.8 NNW 6 7 3 4 1008.8 1008.6 0.0
21/12:30am 30.2 35.8 24.8 73 3.8 NW 4 9 2 5 1009.2 1009.0 0.0
21/12:00am 30.2 35.4 24.8 73 3.8 NW 6 11 3 6 1009.2 1009.0 0.0
 
Date/Time
CST
Temp
°C
App
Temp
°C
Dew
Point
Rel
Hum
%
Delta-T
°C
Wind Press
QNH
hPa
Press
MSL
hPa
Rain
since 9 am
mm
Dir
 
Spd
km/h
Gust
km/h
Spd
kts
Gust
kts
20/11:30pm 30.2 35.4 24.8 73 3.8 NNW 6 11 3 6 1009.0 1008.8 0.0
20/11:00pm 30.2 35.1 24.6 72 3.9 NNW 7 15 4 8 1008.8 1008.6 0.0
20/10:30pm 30.2 35.0 24.4 71 4.1 NNW 7 11 4 6 1008.7 1008.5 0.0
20/10:00pm 30.3 35.5 24.2 70 4.2 NNW 4 9 2 5 1008.6 1008.4 0.0
20/09:30pm 30.4 35.2 24.5 70 4.1 NNW 7 11 4 6 1008.2 1008.0 0.0
20/09:00pm 30.5 35.0 23.7 67 4.7 NNW 6 11 3 6 1008.0 1007.8 0.0
20/08:30pm 30.6 35.2 23.8 67 4.7 N 6 11 3 6 1007.5 1007.3 0.0
20/08:00pm 30.8 35.2 23.5 65 5.0 N 6 13 3 7 1007.2 1007.0 0.0
20/07:30pm 31.0 34.2 23.1 63 5.4 N 11 17 6 9 1006.5 1006.3 0.0
20/07:00pm 31.3 34.9 23.1 61 5.6 N 9 17 5 9 1006.3 1006.1 0.0
20/06:30pm 31.9 35.4 22.9 59 6.2 N 9 15 5 8 1005.9 1005.7 0.0
20/06:00pm 32.4 35.1 22.8 57 6.6 N 13 19 7 10 1005.6 1005.4 0.0
20/05:30pm 32.9 36.5 23.0 56 6.8 NNW 9 17 5 9 1005.8 1005.6 0.0
20/05:00pm 33.1 35.8 22.2 52 7.4 N 11 19 6 10 1005.6 1005.4 0.0
20/04:30pm 33.3 35.6 22.1 52 7.7 NNW 13 20 7 11 1005.5 1005.3 0.0
20/04:00pm 34.0 37.0 23.4 54 7.4 N 13 24 7 13 1005.8 1005.6 0.0
20/03:30pm 34.2 36.8 21.9 48 8.4 N 11 20 6 11 1005.9 1005.7 0.0
20/03:00pm 34.4 36.7 21.4 46 8.8 N 11 19 6 10 1006.1 1005.9 0.0
20/02:30pm 34.6 36.9 21.3 46 9.0 N 11 17 6 9 1006.5 1006.3 0.0
20/02:00pm 35.0 37.2 20.5 42 9.7 N 9 17 5 9 1007.0 1006.8 0.0
20/01:30pm 34.9 37.5 20.5 43 9.7 NW 7 15 4 8 1007.4 1007.2 0.0
20/01:00pm 34.7 36.5 20.3 43 9.6 WNW 11 19 6 10 1008.0 1007.8 0.0
20/12:30pm 34.9 36.5 20.8 43 9.5 W 13 19 7 10 1008.4 1008.2 0.0
20/12:00pm 34.0 34.7 19.6 42 9.5 W 15 20 8 11 1008.7 1008.5 0.0
20/11:30am 34.0 36.0 20.7 45 8.9 WNW 11 15 6 8 1009.5 1009.3 0.0
20/11:00am 33.9 35.8 20.6 45 8.9 WNW 11 17 6 9 1009.9 1009.7 0.0
20/10:30am 32.8 36.0 23.7 58 6.3 WNW 13 20 7 11 1010.4 1010.2 0.0
20/10:00am 32.6 35.9 23.8 59 6.1 WNW 13 20 7 11 1010.6 1010.4 0.0
20/09:30am 32.2 36.0 24.0 62 5.7 W 11 17 6 9 1010.8 1010.6 0.0
20/09:00am 31.9 35.4 24.2 63 5.4 W 13 19 7 10 1010.8 1010.6 0.0
20/08:30am 30.8 35.0 24.7 70 4.3 WSW 11 17 6 9 1010.9 1010.7 0.0

Other Formats:

Comma delimited format used in spreadsheet applications
http://www.bom.gov.au/fwo/IDD60801/IDD60801.94139.axf

JavaScript Object Notation format (JSON) in row-major order
http://www.bom.gov.au/fwo/IDD60801/IDD60801.94139.json